createdAt,value
2023-02-18T00:00:04.695Z,1014.01
2023-02-18T00:00:49.428Z,1013.99
2023-02-18T00:01:49.472Z,1013.99
2023-02-18T00:02:52.259Z,1014.00
2023-02-18T00:03:49.597Z,1013.97
2023-02-18T00:04:49.425Z,1014.00
2023-02-18T00:05:49.488Z,1013.96
2023-02-18T00:06:49.431Z,1013.98
2023-02-18T00:07:49.344Z,1013.97
2023-02-18T00:08:49.432Z,1013.98
2023-02-18T00:09:49.440Z,1013.99
2023-02-18T00:10:49.847Z,1013.95
2023-02-18T00:11:49.576Z,1013.97
2023-02-18T00:12:49.400Z,1013.88
2023-02-18T00:13:49.685Z,1013.86
2023-02-18T00:14:49.632Z,1013.82
2023-02-18T00:15:49.583Z,1013.83
2023-02-18T00:16:49.586Z,1013.79
2023-02-18T00:17:49.238Z,1013.82
2023-02-18T00:18:50.146Z,1013.81
2023-02-18T00:19:49.474Z,1013.84
2023-02-18T00:20:49.278Z,1013.79
2023-02-18T00:21:49.233Z,1013.74
2023-02-18T00:23:10.606Z,1013.77
2023-02-18T00:23:49.522Z,1013.77
2023-02-18T00:24:49.386Z,1013.77
2023-02-18T00:25:49.392Z,1013.76
2023-02-18T00:26:49.277Z,1013.81
2023-02-18T00:27:49.150Z,1013.83
2023-02-18T00:28:49.090Z,1013.81
2023-02-18T00:29:49.800Z,1013.82
2023-02-18T00:30:50.079Z,1013.78
2023-02-18T01:10:06.365Z,1013.49
2023-02-18T01:11:06.283Z,1013.42
2023-02-18T01:12:05.662Z,1013.41
2023-02-18T01:13:05.978Z,1013.37
2023-02-18T01:14:06.733Z,1013.37
2023-02-18T01:15:05.919Z,1013.36
2023-02-18T01:16:05.795Z,1013.35
2023-02-18T01:17:05.623Z,1013.39
2023-02-18T01:18:05.613Z,1013.40
2023-02-18T01:19:05.574Z,1013.44
2023-02-18T01:20:05.635Z,1013.36
2023-02-18T01:21:05.546Z,1013.37
2023-02-18T01:22:05.623Z,1013.39
2023-02-18T01:23:05.804Z,1013.37
2023-02-18T01:24:05.476Z,1013.37
2023-02-18T01:25:05.737Z,1013.42
2023-02-18T01:26:05.685Z,1013.39
2023-02-18T01:27:05.578Z,1013.35
2023-02-18T01:28:06.053Z,1013.31
2023-02-18T01:29:05.425Z,1013.33
2023-02-18T01:30:05.741Z,1013.34
2023-02-18T01:31:05.532Z,1013.35
2023-02-18T01:32:05.633Z,1013.36
2023-02-18T01:33:06.218Z,1013.37
2023-02-18T01:34:07.277Z,1013.32
2023-02-18T01:35:05.370Z,1013.26
2023-02-18T01:36:05.557Z,1013.29
2023-02-18T01:37:05.459Z,1013.31
2023-02-18T01:38:05.769Z,1013.29
2023-02-18T01:39:07.688Z,1013.26
2023-02-18T01:40:05.389Z,1013.28
2023-02-18T01:41:05.307Z,1013.23
2023-02-18T01:42:05.624Z,1013.23
2023-02-18T01:43:05.705Z,1013.20
2023-02-18T01:44:05.990Z,1013.23
2023-02-18T01:45:05.287Z,1013.20
2023-02-18T01:46:05.250Z,1013.23
2023-02-18T01:47:05.271Z,1013.23
2023-02-18T01:48:05.235Z,1013.23
2023-02-18T01:49:09.719Z,1013.22
2023-02-18T01:50:05.427Z,1013.18
2023-02-18T01:51:05.428Z,1013.13
2023-02-18T01:52:06.113Z,1013.17
2023-02-18T01:53:05.342Z,1013.16
2023-02-18T01:54:05.165Z,1013.21
2023-02-18T01:55:05.404Z,1013.17
2023-02-18T01:56:05.241Z,1013.20
2023-02-18T01:57:05.234Z,1013.13
2023-02-18T01:58:05.363Z,1013.15
2023-02-18T01:59:05.144Z,1013.14
2023-02-18T02:00:05.124Z,1013.19
2023-02-18T02:01:05.121Z,1013.19
2023-02-18T02:02:05.224Z,1013.18
2023-02-18T02:03:05.184Z,1013.12
2023-02-18T02:04:09.710Z,1013.13
2023-02-18T02:05:05.059Z,1013.07
2023-02-18T02:06:06.857Z,1013.02
2023-02-18T02:07:05.235Z,1012.99
2023-02-18T02:08:07.460Z,1012.96
2023-02-18T02:09:04.985Z,1012.95
2023-02-18T02:10:05.035Z,1012.94
2023-02-18T02:11:05.461Z,1012.90
2023-02-18T02:12:04.994Z,1012.88
2023-02-18T02:13:05.433Z,1012.82
2023-02-18T02:14:04.978Z,1012.86
2023-02-18T02:15:06.569Z,1012.88
2023-02-18T02:16:04.996Z,1012.85
2023-02-18T02:17:04.958Z,1012.81
2023-02-18T02:18:07.019Z,1012.81
2023-02-18T02:19:05.116Z,1012.77
2023-02-18T02:20:04.813Z,1012.76
2023-02-18T02:21:04.917Z,1012.79
2023-02-18T02:22:05.058Z,1012.75
2023-02-18T02:23:04.830Z,1012.73
2023-02-18T02:24:05.292Z,1012.78
2023-02-18T02:25:04.827Z,1012.78
2023-02-18T02:26:05.200Z,1012.86
2023-02-18T02:27:06.920Z,1012.85
2023-02-18T02:28:05.019Z,1012.78
2023-02-18T02:29:05.007Z,1012.73
2023-02-18T02:30:04.807Z,1012.72
2023-02-18T02:31:05.182Z,1012.67
2023-02-18T02:32:04.753Z,1012.70
2023-02-18T02:33:04.765Z,1012.69
2023-02-18T02:34:08.328Z,1012.69
2023-02-18T02:35:04.654Z,1012.67
2023-02-18T02:36:04.927Z,1012.63
2023-02-18T02:37:04.656Z,1012.59
2023-02-18T02:38:04.722Z,1012.64
2023-02-18T02:39:04.672Z,1012.56
2023-02-18T02:40:03.692Z,1012.48
2023-02-18T02:41:04.601Z,1012.58
2023-02-18T02:42:04.589Z,1012.56
2023-02-18T02:43:04.858Z,1012.56
2023-02-18T02:44:04.627Z,1012.52
2023-02-18T02:45:05.422Z,1012.46
2023-02-18T02:46:05.027Z,1012.41
2023-02-18T02:47:04.492Z,1012.44
2023-02-18T02:48:05.227Z,1012.42
2023-02-18T02:49:05.294Z,1012.42
2023-02-18T02:50:04.597Z,1012.44
2023-02-18T02:51:04.458Z,1012.36
2023-02-18T02:52:04.837Z,1012.34
2023-02-18T02:53:04.613Z,1012.36
2023-02-18T02:54:08.218Z,1012.29
2023-02-18T02:55:05.056Z,1012.25
2023-02-18T02:56:04.474Z,1012.21
2023-02-18T02:57:04.451Z,1012.17
2023-02-18T02:58:04.436Z,1012.13
2023-02-18T02:59:04.395Z,1012.18
2023-02-18T03:00:04.566Z,1012.17
2023-02-18T03:01:04.696Z,1012.12
2023-02-18T03:02:05.543Z,1012.10
2023-02-18T03:03:04.421Z,1012.01
2023-02-18T03:04:04.403Z,1012.01
2023-02-18T03:05:04.622Z,1012.02
2023-02-18T03:06:04.314Z,1012.03
2023-02-18T03:07:04.265Z,1012.07
2023-02-18T03:08:04.658Z,1012.07
2023-02-18T03:09:04.270Z,1012.01
2023-02-18T03:10:04.366Z,1012.02
2023-02-18T03:11:04.270Z,1011.96
2023-02-18T03:12:04.229Z,1011.94
2023-02-18T03:13:04.272Z,1011.89
2023-02-18T03:14:04.295Z,1011.87
2023-02-18T03:15:04.181Z,1011.84
2023-02-18T03:16:04.210Z,1011.79
2023-02-18T03:17:04.224Z,1011.81
2023-02-18T03:18:04.244Z,1011.78
2023-02-18T03:19:04.194Z,1011.81
2023-02-18T03:20:05.046Z,1011.80
2023-02-18T03:21:04.136Z,1011.77
2023-02-18T03:22:04.992Z,1011.69
2023-02-18T03:23:04.196Z,1011.72
2023-02-18T03:24:04.375Z,1011.64
2023-02-18T03:25:04.262Z,1011.63
2023-02-18T03:26:05.008Z,1011.63
2023-02-18T03:27:04.159Z,1011.63
2023-02-18T03:28:04.169Z,1011.62
2023-02-18T03:29:04.169Z,1011.66
2023-02-18T03:30:04.527Z,1011.62
2023-02-18T03:31:06.536Z,1011.59
2023-02-18T03:32:04.239Z,1011.57
2023-02-18T03:33:04.131Z,1011.59
2023-02-18T03:34:04.393Z,1011.57
2023-02-18T03:35:04.095Z,1011.57
2023-02-18T03:36:04.066Z,1011.51
2023-02-18T03:37:04.279Z,1011.50
2023-02-18T03:38:04.221Z,1011.48
2023-02-18T03:39:04.156Z,1011.42
2023-02-18T03:40:04.266Z,1011.42
2023-02-18T03:41:06.249Z,1011.43
2023-02-18T03:42:03.895Z,1011.45
2023-02-18T03:43:04.978Z,1011.41
2023-02-18T03:44:03.924Z,1011.37
2023-02-18T03:45:04.931Z,1011.42
2023-02-18T03:46:04.217Z,1011.43
2023-02-18T03:47:04.067Z,1011.39
2023-02-18T03:48:03.898Z,1011.37
2023-02-18T03:49:03.845Z,1011.42
2023-02-18T03:50:03.846Z,1011.34
2023-02-18T03:51:04.076Z,1011.29
2023-02-18T03:52:03.840Z,1011.25
2023-02-18T03:53:03.928Z,1011.24
2023-02-18T03:54:03.857Z,1011.18
2023-02-18T03:55:03.786Z,1011.14
2023-02-18T03:56:03.964Z,1011.16
2023-02-18T03:57:03.791Z,1011.10
2023-02-18T03:58:03.882Z,1011.20
2023-02-18T03:59:03.717Z,1011.14
2023-02-18T04:00:04.085Z,1011.11
2023-02-18T04:01:05.623Z,1011.09
2023-02-18T04:02:03.765Z,1011.11
2023-02-18T04:03:03.784Z,1011.05
2023-02-18T04:04:03.698Z,1011.05
2023-02-18T04:05:03.646Z,1011.08
2023-02-18T04:06:03.679Z,1011.07
2023-02-18T04:07:04.043Z,1011.04
2023-02-18T04:08:06.056Z,1011.08
2023-02-18T04:09:09.354Z,1011.03
2023-02-18T04:10:04.610Z,1011.07
2023-02-18T04:11:04.218Z,1011.05
2023-02-18T04:12:03.653Z,1010.98
2023-02-18T04:13:03.587Z,1011.01
2023-02-18T04:14:03.630Z,1011.00
2023-02-18T04:15:03.820Z,1010.99
2023-02-18T04:16:03.868Z,1011.01
2023-02-18T04:17:04.398Z,1010.97
2023-02-18T04:18:03.540Z,1011.00
2023-02-18T04:19:03.507Z,1010.92
2023-02-18T04:20:03.565Z,1010.91
2023-02-18T04:21:03.953Z,1010.86
2023-02-18T04:22:03.501Z,1010.79
2023-02-18T04:23:03.725Z,1010.88
2023-02-18T04:24:03.536Z,1010.82
2023-02-18T04:25:03.465Z,1010.85
2023-02-18T04:26:03.500Z,1010.78
2023-02-18T04:27:03.678Z,1010.81
2023-02-18T04:28:03.386Z,1010.75
2023-02-18T04:29:03.623Z,1010.80
2023-02-18T04:30:03.514Z,1010.78
2023-02-18T04:31:04.280Z,1010.73
2023-02-18T04:32:03.422Z,1010.70
2023-02-18T04:33:03.353Z,1010.65
2023-02-18T04:34:05.458Z,1010.73
2023-02-18T04:35:08.283Z,1010.69
2023-02-18T04:36:03.309Z,1010.67
2023-02-18T04:37:03.803Z,1010.70
2023-02-18T04:38:03.367Z,1010.69
2023-02-18T04:39:03.297Z,1010.67
2023-02-18T04:40:03.289Z,1010.69
2023-02-18T04:41:03.317Z,1010.71
2023-02-18T04:42:03.415Z,1010.61
2023-02-18T04:43:04.047Z,1010.67
2023-02-18T04:44:03.259Z,1010.62
2023-02-18T04:45:03.263Z,1010.61
2023-02-18T04:46:05.041Z,1010.65
2023-02-18T04:47:03.193Z,1010.65
2023-02-18T04:48:03.280Z,1010.66
2023-02-18T04:49:04.156Z,1010.58
2023-02-18T04:50:03.212Z,1010.63
2023-02-18T04:51:03.187Z,1010.62
2023-02-18T04:52:03.147Z,1010.55
2023-02-18T04:53:03.290Z,1010.58
2023-02-18T04:54:03.128Z,1010.55
2023-02-18T04:56:11.100Z,1010.55
2023-02-18T04:56:22.869Z,1010.61
2023-02-18T04:57:16.400Z,1010.56
2023-02-18T04:58:16.191Z,1010.57
2023-02-18T04:59:16.140Z,1010.51
2023-02-18T05:00:16.240Z,1010.53
2023-02-18T05:01:16.453Z,1010.51
2023-02-18T05:02:16.310Z,1010.44
2023-02-18T05:03:16.054Z,1010.52
2023-02-18T05:04:16.406Z,1010.49
2023-02-18T05:05:16.050Z,1010.45
2023-02-18T05:06:16.565Z,1010.48
2023-02-18T05:07:16.341Z,1010.49
2023-02-18T05:08:15.935Z,1010.40
2023-02-18T05:09:15.921Z,1010.37
2023-02-18T05:10:16.320Z,1010.34
2023-02-18T05:11:16.023Z,1010.41
2023-02-18T05:12:29.987Z,1010.34
2023-02-18T05:13:15.976Z,1010.31
2023-02-18T05:14:16.372Z,1010.29
2023-02-18T05:15:15.971Z,1010.27
2023-02-18T05:16:51.337Z,1010.26
2023-02-18T05:17:47.979Z,1010.20
2023-02-18T05:18:34.090Z,1010.19
2023-02-18T05:19:18.390Z,1010.18
2023-02-18T05:20:37.796Z,1010.21
2023-02-18T05:21:16.553Z,1010.14
2023-02-18T05:22:15.900Z,1010.12
2023-02-18T05:23:42.512Z,1010.10
2023-02-18T05:35:49.945Z,1009.85
2023-02-18T05:36:50.854Z,1009.77
2023-02-18T05:38:28.873Z,1009.73
2023-02-18T05:38:50.854Z,1009.71
2023-02-18T05:39:50.902Z,1009.73
2023-02-18T05:40:50.886Z,1009.75
2023-02-18T05:41:51.711Z,1009.79
2023-02-18T05:42:50.788Z,1009.74
2023-02-18T05:43:50.832Z,1009.71
2023-02-18T05:44:50.766Z,1009.66
2023-02-18T05:45:50.831Z,1009.63
2023-02-18T05:46:50.755Z,1009.71
2023-02-18T05:47:50.833Z,1009.60
2023-02-18T05:48:50.797Z,1009.57
2023-02-18T05:49:52.056Z,1009.60
2023-02-18T05:50:51.010Z,1009.53
2023-02-18T05:51:50.747Z,1009.50
2023-02-18T05:52:50.711Z,1009.50
2023-02-18T05:53:50.629Z,1009.49
2023-02-18T05:54:50.714Z,1009.51
2023-02-18T05:55:50.623Z,1009.46
2023-02-18T05:56:50.799Z,1009.42
2023-02-18T05:57:50.718Z,1009.46
2023-02-18T05:58:50.689Z,1009.40
2023-02-18T05:59:50.596Z,1009.41
2023-02-18T06:00:50.550Z,1009.40
2023-02-18T06:01:50.651Z,1009.41
2023-02-18T06:02:52.658Z,1009.38
2023-02-18T06:03:50.646Z,1009.34
2023-02-18T06:04:51.624Z,1009.35
2023-02-18T06:06:02.648Z,1009.39
2023-02-18T06:06:51.148Z,1009.40
2023-02-18T06:07:50.558Z,1009.34
2023-02-18T06:08:50.823Z,1009.42
2023-02-18T06:09:50.524Z,1009.30
2023-02-18T06:10:50.870Z,1009.36
2023-02-18T06:11:51.177Z,1009.33
2023-02-18T06:12:50.460Z,1009.38
2023-02-18T06:13:50.531Z,1009.41
2023-02-18T06:14:50.418Z,1009.36
2023-02-18T06:15:54.139Z,1009.38
2023-02-18T06:16:52.357Z,1009.35
2023-02-18T06:22:37.033Z,1009.28
2023-02-18T06:23:38.011Z,1009.26
2023-02-18T06:24:38.041Z,1009.33
2023-02-18T06:25:38.139Z,1009.32
2023-02-18T06:26:55.937Z,1009.22
2023-02-18T06:27:38.706Z,1009.16
2023-02-18T06:28:38.012Z,1009.11
2023-02-18T06:29:44.370Z,1009.15
2023-02-18T06:57:20.954Z,1009.13
2023-02-18T06:58:21.902Z,1009.05
2023-02-18T06:59:21.940Z,1009.08
2023-02-18T07:01:01.069Z,1009.10
2023-02-18T07:01:21.888Z,1009.09
2023-02-18T07:02:24.299Z,1009.15
2023-02-18T07:03:21.910Z,1009.04
2023-02-18T07:19:28.801Z,1009.10
2023-02-18T07:20:28.459Z,1009.07
2023-02-18T07:21:28.488Z,1009.02
2023-02-18T07:57:30.648Z,1009.04
2023-02-18T07:58:31.721Z,1009.08
2023-02-18T07:59:31.602Z,1009.08
2023-02-18T08:00:31.521Z,1009.06
2023-02-18T08:36:42.942Z,1009.06
2023-02-18T08:37:52.886Z,1009.08
2023-02-18T08:38:44.709Z,1009.02
2023-02-18T08:39:44.006Z,1009.07
2023-02-18T08:40:43.920Z,1009.08
2023-02-18T08:41:44.181Z,1009.03
2023-02-18T08:42:43.884Z,1008.90
2023-02-18T08:43:52.423Z,1009.08
2023-02-18T08:44:43.934Z,1008.94
2023-02-18T08:45:43.931Z,1008.98
2023-02-18T08:46:43.869Z,1009.02
2023-02-18T08:48:17.373Z,1009.00
2023-02-18T08:48:43.876Z,1009.01
2023-02-18T08:49:43.811Z,1008.97
2023-02-18T08:50:43.788Z,1008.96
2023-02-18T08:59:59.986Z,1008.91
2023-02-18T09:00:59.717Z,1008.88
2023-02-18T09:01:59.714Z,1008.96
2023-02-18T09:02:59.671Z,1008.97
2023-02-18T09:04:00.278Z,1008.93
2023-02-18T09:04:59.616Z,1008.95
2023-02-18T09:05:59.831Z,1009.02
2023-02-18T09:07:04.203Z,1008.96
2023-02-18T09:07:59.627Z,1009.03
2023-02-18T09:08:59.956Z,1008.96
2023-02-18T09:10:04.898Z,1008.93
2023-02-18T09:52:53.845Z,1008.79
2023-02-18T10:03:01.967Z,1008.98
2023-02-18T10:04:02.420Z,1009.00
2023-02-18T10:05:02.393Z,1009.06
2023-02-18T10:06:03.693Z,1009.05
2023-02-18T10:07:02.352Z,1009.06
2023-02-18T10:08:02.384Z,1009.07
2023-02-18T10:09:02.357Z,1009.12
2023-02-18T10:10:02.395Z,1009.19
2023-02-18T10:11:02.503Z,1009.20
2023-02-18T10:12:02.311Z,1009.22
2023-02-18T10:13:02.409Z,1009.08
2023-02-18T10:14:02.291Z,1009.16
2023-02-18T10:15:02.313Z,1009.15
2023-02-18T10:16:02.335Z,1009.25
2023-02-18T10:17:02.264Z,1009.31
2023-02-18T10:18:02.492Z,1009.21
2023-02-18T10:19:02.265Z,1009.25
2023-02-18T10:20:04.698Z,1009.16
2023-02-18T10:21:04.508Z,1009.16
2023-02-18T10:22:02.271Z,1009.17
2023-02-18T10:28:32.933Z,1009.27
2023-02-18T10:29:40.607Z,1009.30
2023-02-18T10:30:33.756Z,1009.22
2023-02-18T10:31:56.230Z,1009.27
2023-02-18T10:32:49.914Z,1009.27
2023-02-18T14:58:14.612Z,1009.78
2023-02-18T15:24:39.748Z,1009.90
2023-02-18T15:45:32.189Z,1009.92
2023-02-18T15:46:28.136Z,1009.89
2023-02-18T15:47:28.188Z,1009.89
2023-02-18T17:21:34.800Z,1010.41
2023-02-18T17:22:36.038Z,1010.47
2023-02-18T17:23:35.760Z,1010.45
2023-02-18T17:24:35.818Z,1010.47
2023-02-18T17:25:35.758Z,1010.44
2023-02-18T17:26:37.750Z,1010.42
2023-02-18T17:27:35.718Z,1010.41
2023-02-18T17:28:35.717Z,1010.43
2023-02-18T17:29:35.734Z,1010.36
2023-02-18T17:30:35.803Z,1010.37
2023-02-18T17:31:35.824Z,1010.42
2023-02-18T17:32:35.938Z,1010.49
2023-02-18T17:33:35.641Z,1010.49
2023-02-18T17:34:35.618Z,1010.59
2023-02-18T17:35:35.603Z,1010.58
2023-02-18T17:36:35.593Z,1010.61
2023-02-18T17:37:35.847Z,1010.55
2023-02-18T17:38:35.631Z,1010.52
2023-02-18T17:39:35.625Z,1010.52
2023-02-18T17:40:35.626Z,1010.51
2023-02-18T17:41:35.566Z,1010.51
2023-02-18T17:42:35.642Z,1010.55
2023-02-18T17:43:35.594Z,1010.51
2023-02-18T17:44:35.555Z,1010.54
2023-02-18T17:52:52.476Z,1010.60
2023-02-18T17:53:53.429Z,1010.64
2023-02-18T17:54:53.456Z,1010.64
2023-02-18T17:55:53.574Z,1010.65
2023-02-18T17:56:53.402Z,1010.60
2023-02-18T17:57:53.404Z,1010.60
2023-02-18T17:58:53.395Z,1010.59
2023-02-18T17:59:53.449Z,1010.62
2023-02-18T18:00:53.402Z,1010.62
2023-02-18T18:01:53.431Z,1010.61
2023-02-18T18:02:53.388Z,1010.66
2023-02-18T18:03:53.314Z,1010.66
2023-02-18T18:04:53.307Z,1010.59
2023-02-18T18:05:53.487Z,1010.66
2023-02-18T18:06:53.343Z,1010.67
2023-02-18T18:07:53.314Z,1010.70
2023-02-18T18:08:53.276Z,1010.63
2023-02-18T18:09:53.339Z,1010.68
2023-02-18T18:15:38.232Z,1010.66
2023-02-18T18:16:35.219Z,1010.71
2023-02-18T18:17:36.180Z,1010.74
2023-02-18T18:18:35.301Z,1010.78
2023-02-18T18:19:35.176Z,1010.83
2023-02-18T18:20:35.175Z,1010.77
2023-02-18T18:21:34.123Z,1010.84
2023-02-18T18:22:36.210Z,1010.75
2023-02-18T18:23:35.098Z,1010.82
2023-02-18T18:24:35.128Z,1010.87
2023-02-18T18:25:35.125Z,1010.86
2023-02-18T18:26:35.061Z,1010.81
2023-02-18T18:27:35.057Z,1010.86
2023-02-18T18:28:37.499Z,1010.89
2023-02-18T19:18:21.604Z,1010.75
2023-02-18T19:19:22.618Z,1010.73
2023-02-18T19:20:22.574Z,1010.75
2023-02-18T19:21:22.608Z,1010.74
2023-02-18T19:22:22.606Z,1010.75
2023-02-18T19:23:22.540Z,1010.72
2023-02-18T19:24:22.692Z,1010.65
2023-02-18T19:25:22.505Z,1010.59
2023-02-18T19:26:22.507Z,1010.66
2023-02-18T19:27:22.592Z,1010.68
2023-02-18T19:28:22.549Z,1010.71
2023-02-18T19:29:22.532Z,1010.68
2023-02-18T19:30:22.620Z,1010.69
2023-02-18T19:31:22.571Z,1010.69
2023-02-18T19:32:22.519Z,1010.72
2023-02-18T19:33:22.483Z,1010.70
2023-02-18T19:34:22.463Z,1010.74
2023-02-18T19:35:22.452Z,1010.64
2023-02-18T19:36:22.560Z,1010.65
2023-02-18T19:37:23.401Z,1010.68
2023-02-18T19:38:22.414Z,1010.67
2023-02-18T19:39:22.387Z,1010.66
2023-02-18T19:40:22.332Z,1010.70
2023-02-18T19:41:22.341Z,1010.71
2023-02-18T19:42:22.399Z,1010.68
2023-02-18T19:43:22.817Z,1010.66
2023-02-18T19:44:22.347Z,1010.68
2023-02-18T19:45:22.303Z,1010.65
2023-02-18T19:46:22.405Z,1010.65
2023-02-18T19:47:22.295Z,1010.69
2023-02-18T19:48:22.290Z,1010.62
2023-02-18T19:49:22.314Z,1010.66
2023-02-18T19:50:22.415Z,1010.61
2023-02-18T19:51:22.285Z,1010.59
2023-02-18T19:52:22.280Z,1010.56
2023-02-18T19:53:22.221Z,1010.52
2023-02-18T19:54:22.280Z,1010.50
2023-02-18T19:55:22.261Z,1010.56
2023-02-18T19:56:22.186Z,1010.50
2023-02-18T19:57:22.198Z,1010.58
2023-02-18T19:58:22.178Z,1010.51
2023-02-18T19:59:22.214Z,1010.51
2023-02-18T20:00:53.603Z,1010.49
2023-02-18T20:01:22.402Z,1010.56
2023-02-18T20:02:28.929Z,1010.54
2023-02-18T20:03:22.091Z,1010.45
2023-02-18T20:04:22.289Z,1010.40
2023-02-18T20:05:22.094Z,1010.42
2023-02-18T20:06:22.388Z,1010.41
2023-02-18T20:07:22.093Z,1010.43
2023-02-18T20:08:26.547Z,1010.41
2023-02-18T20:09:22.086Z,1010.41
2023-02-18T20:10:22.901Z,1010.37
2023-02-18T20:11:22.024Z,1010.40
2023-02-18T20:12:22.746Z,1010.42
2023-02-18T20:13:22.755Z,1010.38
2023-02-18T20:14:22.235Z,1010.40
2023-02-18T20:15:22.706Z,1010.42
2023-02-18T20:16:22.694Z,1010.39
2023-02-18T20:17:22.235Z,1010.45
2023-02-18T20:51:26.649Z,1010.40
